createdAt,value
2019-05-01T00:00:32.236Z,53.59
2019-05-01T00:03:04.882Z,53.53
2019-05-01T00:05:37.573Z,53.61
2019-05-01T00:08:08.853Z,53.60
2019-05-01T00:10:39.903Z,53.67
2019-05-01T00:13:11.063Z,53.67
2019-05-01T00:15:42.499Z,53.75
2019-05-01T00:18:13.534Z,53.79
2019-05-01T00:20:44.588Z,53.81
2019-05-01T00:23:15.587Z,53.88
2019-05-01T00:25:46.601Z,53.91
2019-05-01T00:28:17.650Z,53.92
2019-05-01T00:30:48.653Z,53.97
2019-05-01T00:33:19.629Z,53.95
2019-05-01T00:35:50.632Z,53.88
2019-05-01T00:38:21.613Z,53.91
2019-05-01T00:40:53.289Z,53.95
2019-05-01T00:43:24.273Z,53.93
2019-05-01T00:45:55.339Z,53.93
2019-05-01T00:48:26.339Z,54.01
2019-05-01T00:50:57.310Z,54.02
2019-05-01T00:53:28.291Z,54.03
2019-05-01T00:56:06.760Z,54.08
2019-05-01T00:58:37.636Z,54.12
2019-05-01T01:01:10.253Z,54.19
2019-05-01T01:03:41.826Z,54.23
2019-05-01T01:06:12.652Z,54.25
2019-05-01T01:08:43.507Z,54.84
2019-05-01T01:11:14.501Z,54.50
2019-05-01T01:13:45.515Z,54.48
2019-05-01T01:16:16.514Z,54.51
2019-05-01T01:18:47.487Z,54.49
2019-05-01T01:21:18.476Z,54.46
2019-05-01T01:23:49.537Z,54.40
2019-05-01T01:26:20.517Z,54.42
2019-05-01T01:28:51.528Z,54.37
2019-05-01T01:31:22.499Z,54.36
2019-05-01T01:33:53.476Z,54.39
2019-05-01T01:36:24.560Z,54.40
2019-05-01T01:38:55.609Z,54.41
2019-05-01T01:41:26.648Z,54.45
2019-05-01T01:43:59.348Z,54.50
2019-05-01T01:46:34.954Z,54.51
2019-05-01T01:49:05.948Z,54.54
2019-05-01T01:51:36.927Z,54.59
2019-05-01T01:54:07.936Z,54.61
2019-05-01T01:56:39.045Z,54.62
2019-05-01T01:59:10.094Z,54.65
2019-05-01T02:01:42.757Z,54.65
2019-05-01T02:04:15.372Z,54.68
2019-05-01T02:06:46.859Z,54.68
2019-05-01T02:09:17.851Z,54.68
2019-05-01T02:11:49.524Z,54.69
2019-05-01T02:14:20.507Z,54.73
2019-05-01T02:16:51.535Z,54.79
2019-05-01T02:19:22.545Z,54.76
2019-05-01T02:21:53.526Z,54.77
2019-05-01T02:24:24.528Z,54.82
2019-05-01T02:26:57.211Z,54.85
2019-05-01T02:29:42.156Z,54.82
2019-05-01T02:32:14.927Z,54.88
2019-05-01T02:34:46.204Z,54.92
2019-05-01T02:37:17.268Z,54.91
2019-05-01T02:39:48.923Z,55.03
2019-05-01T02:42:21.437Z,55.05
2019-05-01T02:44:54.111Z,55.17
2019-05-01T02:47:31.198Z,55.11
2019-05-01T02:50:12.929Z,55.14
2019-05-01T02:52:44.995Z,55.16
2019-05-01T02:55:23.920Z,55.27
2019-05-01T02:57:54.914Z,55.29
2019-05-01T03:00:26.603Z,55.32
2019-05-01T03:02:57.913Z,55.34
2019-05-01T03:05:28.896Z,55.40
2019-05-01T03:07:59.921Z,55.38
2019-05-01T03:10:30.886Z,55.40
2019-05-01T03:13:01.963Z,55.37
2019-05-01T03:15:34.959Z,55.30
2019-05-01T03:18:10.012Z,55.25
2019-05-01T03:20:42.659Z,55.27
2019-05-01T03:23:18.146Z,55.21
2019-05-01T03:25:49.273Z,55.24
2019-05-01T03:28:19.996Z,55.23
2019-05-01T03:30:51.259Z,55.26
2019-05-01T03:33:22.734Z,55.32
2019-05-01T03:35:53.776Z,55.36
2019-05-01T03:38:25.072Z,55.33
2019-05-01T03:40:56.122Z,55.35
2019-05-01T03:43:27.209Z,55.41
2019-05-01T03:45:58.216Z,55.35
2019-05-01T03:48:29.177Z,55.31
2019-05-01T03:51:00.170Z,55.33
2019-05-01T03:53:31.215Z,55.36
2019-05-01T03:56:02.235Z,55.38
2019-05-01T03:58:33.550Z,55.41
2019-05-01T04:01:09.498Z,55.43
2019-05-01T04:03:57.879Z,55.47
2019-05-01T04:06:29.126Z,55.46
2019-05-01T04:09:00.176Z,55.48
2019-05-01T04:11:31.225Z,55.54
2019-05-01T04:14:02.316Z,55.58
2019-05-01T04:16:34.628Z,55.63
2019-05-01T04:19:06.365Z,55.64
2019-05-01T04:21:39.077Z,55.54
2019-05-01T04:24:10.051Z,55.57
2019-05-01T04:26:41.185Z,55.61
2019-05-01T04:29:15.041Z,55.66
2019-05-01T04:31:53.955Z,55.71
2019-05-01T04:34:35.598Z,55.66
2019-05-01T04:37:17.881Z,55.73
2019-05-01T04:39:49.116Z,55.82
2019-05-01T04:42:20.092Z,55.70
2019-05-01T04:44:51.092Z,55.77
2019-05-01T04:47:22.168Z,55.72
2019-05-01T04:49:53.848Z,55.63
2019-05-01T04:52:25.173Z,55.50
2019-05-01T04:54:56.628Z,55.43
2019-05-01T04:57:27.717Z,55.49
2019-05-01T04:59:58.813Z,55.57
2019-05-01T05:02:34.176Z,55.55
2019-05-01T05:05:06.679Z,55.56
2019-05-01T05:07:37.664Z,55.58
2019-05-01T05:10:08.746Z,55.66
2019-05-01T05:12:57.552Z,55.75
2019-05-01T05:15:46.269Z,55.69
2019-05-01T05:18:17.772Z,55.76
2019-05-01T05:20:49.291Z,55.83
2019-05-01T05:23:20.275Z,55.80
2019-05-01T05:25:51.555Z,55.75
2019-05-01T05:28:22.804Z,55.65
2019-05-01T05:30:54.781Z,55.64
2019-05-01T05:33:26.729Z,55.37
2019-05-01T05:35:56.974Z,55.28
2019-05-01T05:38:42.656Z,55.95
2019-05-01T05:41:13.924Z,55.48
2019-05-01T05:43:45.279Z,55.35
2019-05-01T05:46:16.632Z,55.37
2019-05-01T05:48:47.788Z,55.33
2019-05-01T05:51:26.301Z,55.35
2019-05-01T05:53:58.933Z,55.37
2019-05-01T05:56:34.509Z,55.32
2019-05-01T05:59:18.839Z,55.29
2019-05-01T06:01:54.875Z,55.36
2019-05-01T06:04:44.937Z,55.43
2019-05-01T06:07:22.512Z,55.25
2019-05-01T06:09:57.759Z,55.39
2019-05-01T06:12:37.262Z,55.40
2019-05-01T06:15:12.740Z,55.36
2019-05-01T06:17:48.039Z,55.52
2019-05-01T06:20:34.074Z,55.55
2019-05-01T06:23:11.217Z,55.52
2019-05-01T06:25:45.423Z,55.50
2019-05-01T06:28:19.762Z,55.51
2019-05-01T06:30:49.927Z,55.49
2019-05-01T06:33:20.941Z,55.43
2019-05-01T06:35:51.912Z,55.48
2019-05-01T06:38:24.744Z,55.52
2019-05-01T06:40:58.323Z,55.52
2019-05-01T06:43:43.693Z,55.55
2019-05-01T06:46:14.999Z,55.54
2019-05-01T06:48:53.393Z,55.54
2019-05-01T06:51:33.796Z,55.54
2019-05-01T06:54:11.454Z,55.63
2019-05-01T06:56:41.098Z,55.70
2019-05-01T06:59:13.385Z,55.76
2019-05-01T07:01:45.100Z,55.74
2019-05-01T07:04:16.351Z,55.65
2019-05-01T07:06:47.392Z,55.73
2019-05-01T07:09:27.782Z,55.61
2019-05-01T07:11:52.670Z,55.54
2019-05-01T07:14:24.369Z,55.49
2019-05-01T07:16:55.423Z,55.58
2019-05-01T07:19:44.211Z,55.54
2019-05-01T07:22:15.263Z,55.37
2019-05-01T07:24:49.006Z,55.34
2019-05-01T07:27:23.581Z,55.43
2019-05-01T07:29:55.808Z,55.30
2019-05-01T07:32:26.872Z,55.22
2019-05-01T07:35:01.924Z,55.29
2019-05-01T07:37:30.558Z,55.18
2019-05-01T07:40:01.637Z,55.21
2019-05-01T07:42:35.625Z,55.23
2019-05-01T07:45:20.228Z,55.12
2019-05-01T07:47:53.434Z,54.89
2019-05-01T07:50:31.592Z,54.77
2019-05-01T07:52:57.352Z,54.68
2019-05-01T07:55:37.680Z,54.91
2019-05-01T07:58:15.908Z,54.75
2019-05-01T08:00:51.488Z,54.87
2019-05-01T08:03:22.500Z,54.80
2019-05-01T08:05:53.654Z,54.57
2019-05-01T08:08:24.640Z,54.58
2019-05-01T08:10:59.616Z,54.59
2019-05-01T08:13:30.704Z,54.35
2019-05-01T08:16:06.974Z,54.06
2019-05-01T08:18:39.120Z,53.89
2019-05-01T08:21:27.665Z,53.57
2019-05-01T08:23:58.683Z,53.22
2019-05-01T08:26:29.651Z,53.46
2019-05-01T08:29:18.397Z,53.66
2019-05-01T08:32:03.440Z,53.74
2019-05-01T08:34:47.958Z,53.58
2019-05-01T08:37:08.288Z,53.34
2019-05-01T08:39:39.805Z,53.08
2019-05-01T08:42:11.952Z,52.92
2019-05-01T08:45:05.066Z,52.73
2019-05-01T08:47:39.582Z,52.65
2019-05-01T08:50:24.775Z,52.60
2019-05-01T08:52:53.744Z,52.34
2019-05-01T08:55:24.741Z,52.44
2019-05-01T08:57:55.727Z,52.46
2019-05-01T09:00:30.854Z,52.59
2019-05-01T09:03:08.106Z,52.59
2019-05-01T09:05:33.950Z,52.93
2019-05-01T09:08:05.151Z,53.02
2019-05-01T09:10:36.124Z,52.90
2019-05-01T09:13:07.141Z,52.62
2019-05-01T09:15:38.758Z,52.51
2019-05-01T09:18:09.761Z,52.34
2019-05-01T09:20:42.018Z,52.25
2019-05-01T09:23:14.393Z,52.18
2019-05-01T09:25:59.339Z,51.96
2019-05-01T09:28:36.039Z,51.87
2019-05-01T09:31:06.308Z,52.04
2019-05-01T09:33:37.294Z,52.12
2019-05-01T09:36:08.345Z,51.99
2019-05-01T09:38:39.324Z,51.94
2019-05-01T09:41:10.336Z,51.62
2019-05-01T09:43:41.293Z,51.62
2019-05-01T09:46:12.287Z,51.36
2019-05-01T09:48:43.842Z,50.99
2019-05-01T09:51:16.479Z,50.83
2019-05-01T09:53:49.169Z,50.68
2019-05-01T09:56:24.482Z,50.36
2019-05-01T09:58:55.456Z,50.54
2019-05-01T10:01:31.552Z,50.73
2019-05-01T10:03:59.196Z,50.83
2019-05-01T10:06:30.342Z,50.48
2019-05-01T10:09:01.466Z,50.28
2019-05-01T10:11:35.948Z,50.07
2019-05-01T10:14:06.204Z,50.14
2019-05-01T10:16:37.203Z,49.86
2019-05-01T10:19:08.170Z,49.79
2019-05-01T10:21:39.173Z,49.91
2019-05-01T10:24:10.150Z,49.85
2019-05-01T10:26:42.769Z,50.03
2019-05-01T10:29:27.614Z,49.84
2019-05-01T10:32:09.288Z,49.24
2019-05-01T10:34:57.020Z,49.87
2019-05-01T10:37:33.164Z,49.91
2019-05-01T10:40:00.897Z,49.88
2019-05-01T10:42:32.045Z,49.54
2019-05-01T10:45:03.053Z,49.53
2019-05-01T10:47:34.292Z,49.66
2019-05-01T10:50:05.612Z,49.43
2019-05-01T10:52:36.579Z,49.18
2019-05-01T10:55:08.239Z,49.31
2019-05-01T10:57:40.662Z,49.50
2019-05-01T11:00:12.164Z,49.66
2019-05-01T11:02:43.159Z,49.30
2019-05-01T11:05:14.194Z,49.10
2019-05-01T11:07:45.179Z,49.05
2019-05-01T11:10:16.300Z,48.98
2019-05-01T11:12:47.297Z,48.68
2019-05-01T11:15:18.555Z,48.56
2019-05-01T11:17:49.533Z,48.29
2019-05-01T11:20:20.513Z,48.43
2019-05-01T11:22:51.481Z,48.58
2019-05-01T11:25:22.943Z,48.50
2019-05-01T11:27:53.922Z,48.35
2019-05-01T11:30:24.974Z,49.04
2019-05-01T11:33:09.536Z,48.61
2019-05-01T11:36:08.986Z,48.63
2019-05-01T11:38:44.254Z,48.32
2019-05-01T11:41:22.754Z,48.76
2019-05-01T11:43:53.711Z,48.47
2019-05-01T11:46:24.705Z,48.00
2019-05-01T11:48:55.681Z,47.98
2019-05-01T11:51:26.701Z,48.11
2019-05-01T11:53:57.667Z,48.54
2019-05-01T11:56:28.669Z,48.38
2019-05-01T11:58:59.672Z,48.20
2019-05-01T12:01:30.648Z,48.36
2019-05-01T12:04:01.625Z,48.42
2019-05-01T12:06:32.611Z,48.11
2019-05-01T12:09:05.236Z,47.94
2019-05-01T12:11:37.862Z,47.43
2019-05-01T12:14:08.857Z,47.15
2019-05-01T12:16:57.649Z,47.38
2019-05-01T12:19:32.566Z,47.30
2019-05-01T12:22:03.581Z,46.94
2019-05-01T12:24:34.697Z,46.78
2019-05-01T12:27:05.675Z,46.94
2019-05-01T12:29:36.646Z,46.87
2019-05-01T12:32:07.670Z,47.05
2019-05-01T12:34:38.688Z,46.42
2019-05-01T12:37:27.411Z,46.00
2019-05-01T12:39:58.419Z,46.26
2019-05-01T12:42:31.044Z,46.24
2019-05-01T12:45:02.038Z,46.42
2019-05-01T12:47:38.108Z,46.07
2019-05-01T12:50:10.965Z,46.06
2019-05-01T12:52:44.792Z,45.87
2019-05-01T12:55:30.492Z,45.78
2019-05-01T12:58:02.390Z,45.54
2019-05-01T13:00:52.736Z,45.49
2019-05-01T13:03:23.814Z,45.44
2019-05-01T13:05:54.794Z,45.42
2019-05-01T13:08:25.808Z,45.27
2019-05-01T13:10:56.899Z,45.12
2019-05-01T13:13:27.902Z,44.48
2019-05-01T13:15:58.903Z,45.06
2019-05-01T13:18:29.887Z,44.31
2019-05-01T13:21:00.884Z,44.39
2019-05-01T13:23:31.895Z,44.38
2019-05-01T13:26:04.534Z,44.53
2019-05-01T13:28:37.741Z,44.27
2019-05-01T13:31:25.368Z,44.23
2019-05-01T13:33:56.412Z,43.97
2019-05-01T13:36:27.391Z,44.21
2019-05-01T13:38:58.400Z,44.43
2019-05-01T13:41:29.392Z,44.32
2019-05-01T13:44:00.453Z,44.58
2019-05-01T13:46:31.419Z,44.28
2019-05-01T13:49:02.393Z,44.09
2019-05-01T13:51:33.731Z,44.01
2019-05-01T13:54:06.578Z,44.23
2019-05-01T13:56:37.561Z,43.72
2019-05-01T13:59:10.452Z,43.61
2019-05-01T14:01:41.430Z,44.00
2019-05-01T14:04:13.477Z,43.71
2019-05-01T14:06:44.445Z,43.60
2019-05-01T14:09:17.226Z,43.54
2019-05-01T14:11:48.204Z,43.53
2019-05-01T14:14:19.216Z,43.38
2019-05-01T14:16:50.224Z,43.41
2019-05-01T14:27:43.032Z,46.62
2019-05-01T14:30:14.383Z,47.20
2019-05-01T14:32:45.355Z,46.77
2019-05-01T14:35:16.695Z,46.06
2019-05-01T14:37:47.672Z,45.77
2019-05-01T14:40:18.822Z,45.43
2019-05-01T14:42:49.811Z,45.29
2019-05-01T14:45:21.087Z,44.94
2019-05-01T14:47:52.071Z,44.50
2019-05-01T14:50:23.076Z,44.23
2019-05-01T14:52:54.075Z,44.07
2019-05-01T14:55:25.076Z,44.35
2019-05-01T14:57:56.092Z,44.28
2019-05-01T15:00:27.144Z,44.25
2019-05-01T15:02:58.115Z,44.42
2019-05-01T15:05:29.114Z,44.08
2019-05-01T15:08:00.104Z,44.18
2019-05-01T15:10:31.103Z,44.36
2019-05-01T15:13:09.534Z,44.47
2019-05-01T15:15:44.860Z,44.68
2019-05-01T15:18:20.746Z,44.68
2019-05-01T15:20:51.774Z,45.65
2019-05-01T15:23:22.798Z,45.22
2019-05-01T15:25:53.750Z,44.95
2019-05-01T15:28:24.770Z,44.73
2019-05-01T15:30:55.741Z,44.75
2019-05-01T15:33:26.754Z,44.93
2019-05-01T15:35:57.755Z,44.85
2019-05-01T15:38:28.730Z,44.89
2019-05-01T15:40:59.502Z,44.74
2019-05-01T15:43:32.132Z,45.11
2019-05-01T15:46:03.115Z,45.19
2019-05-01T15:48:34.129Z,45.32
2019-05-01T15:51:05.180Z,45.57
2019-05-01T15:53:36.185Z,45.56
2019-05-01T15:56:07.156Z,45.40
2019-05-01T15:58:38.146Z,45.31
2019-05-01T16:01:09.142Z,45.55
2019-05-01T16:03:40.147Z,45.12
2019-05-01T16:06:11.150Z,45.39
2019-05-01T16:08:42.143Z,45.52
2019-05-01T16:11:15.062Z,45.64
2019-05-01T16:13:46.041Z,45.53
2019-05-01T16:16:17.038Z,45.93
2019-05-01T16:18:48.050Z,45.40
2019-05-01T16:21:19.024Z,45.27
2019-05-01T16:23:50.033Z,45.24
2019-05-01T16:26:21.012Z,45.17
2019-05-01T16:28:52.017Z,45.37
2019-05-01T16:31:22.990Z,45.19
2019-05-01T16:33:53.989Z,45.24
2019-05-01T16:36:24.970Z,45.41
2019-05-01T16:39:06.592Z,45.50
2019-05-01T16:41:37.571Z,45.54
2019-05-01T16:44:08.543Z,45.55
2019-05-01T16:46:39.619Z,45.41
2019-05-01T16:49:10.595Z,45.39
2019-05-01T16:51:41.596Z,45.46
2019-05-01T16:54:12.647Z,45.37
2019-05-01T16:56:43.633Z,45.61
2019-05-01T16:59:14.622Z,45.63
2019-05-01T17:01:47.240Z,45.48
2019-05-01T17:04:26.840Z,45.60
2019-05-01T17:06:59.455Z,45.50
2019-05-01T17:09:48.358Z,45.68
2019-05-01T17:12:20.979Z,45.59
2019-05-01T17:14:51.996Z,45.87
2019-05-01T17:17:24.218Z,45.55
2019-05-01T17:19:55.198Z,45.66
2019-05-01T17:22:26.259Z,45.62
2019-05-01T17:24:57.242Z,45.51
2019-05-01T17:27:28.240Z,45.51
2019-05-01T17:29:59.233Z,45.52
2019-05-01T17:32:30.270Z,45.44
2019-05-01T17:35:01.810Z,45.47
2019-05-01T17:37:33.941Z,45.28
2019-05-01T17:40:07.950Z,45.53
2019-05-01T17:42:38.985Z,45.59
2019-05-01T17:45:10.169Z,45.72
2019-05-01T17:47:41.137Z,45.80
2019-05-01T17:50:16.487Z,45.87
2019-05-01T17:52:45.058Z,45.83
2019-05-01T17:55:16.112Z,45.64
2019-05-01T17:57:47.105Z,45.72
2019-05-01T18:00:36.060Z,45.78
2019-05-01T18:03:25.225Z,45.91
2019-05-01T18:06:04.869Z,45.95
2019-05-01T18:08:35.955Z,46.07
2019-05-01T18:11:09.443Z,46.01
2019-05-01T18:13:39.624Z,45.91
2019-05-01T18:16:10.608Z,46.09
2019-05-01T18:18:41.643Z,46.16
2019-05-01T18:21:13.064Z,46.17
2019-05-01T18:23:53.102Z,46.24
2019-05-01T18:26:29.473Z,46.34
2019-05-01T18:29:05.795Z,46.47
2019-05-01T18:31:37.907Z,46.27
2019-05-01T18:34:08.864Z,46.43
2019-05-01T18:36:54.895Z,46.41
2019-05-01T18:39:30.087Z,46.51
2019-05-01T18:42:08.184Z,46.66
2019-05-01T18:44:42.516Z,46.63
2019-05-01T18:47:12.014Z,46.74
2019-05-01T18:49:43.050Z,46.72
2019-05-01T18:52:14.196Z,46.71
2019-05-01T18:54:45.180Z,46.77
2019-05-01T18:57:16.186Z,46.93
2019-05-01T18:59:47.193Z,47.06
2019-05-01T19:02:20.485Z,46.99
2019-05-01T19:04:50.860Z,47.16
2019-05-01T19:07:21.843Z,46.99
2019-05-01T19:09:53.590Z,46.98
2019-05-01T19:12:24.565Z,47.06
2019-05-01T19:14:55.561Z,47.00
2019-05-01T19:17:26.580Z,47.01
2019-05-01T19:19:57.547Z,46.89
2019-05-01T19:22:28.555Z,47.13
2019-05-01T19:24:59.586Z,47.11
2019-05-01T19:27:30.617Z,47.08
2019-05-01T19:30:01.626Z,47.02
2019-05-01T19:32:34.045Z,47.13
2019-05-01T19:35:08.707Z,47.19
2019-05-01T19:37:39.680Z,47.32
2019-05-01T19:40:10.954Z,47.24
2019-05-01T19:42:41.932Z,47.37
2019-05-01T19:45:13.398Z,47.40
2019-05-01T19:47:44.371Z,47.38
2019-05-01T19:50:16.329Z,47.23
2019-05-01T19:52:47.384Z,47.30
2019-05-01T19:55:18.425Z,47.39
2019-05-01T19:57:49.447Z,47.44
2019-05-01T20:00:41.792Z,47.55
2019-05-01T20:03:12.784Z,47.53
2019-05-01T20:05:43.748Z,47.66
2019-05-01T20:08:14.776Z,47.86
2019-05-01T20:11:05.100Z,47.67
2019-05-01T20:13:36.139Z,47.74
2019-05-01T20:16:08.347Z,47.80
2019-05-01T20:18:39.351Z,47.79
2019-05-01T20:21:10.330Z,47.86
2019-05-01T20:23:41.342Z,47.82
2019-05-01T20:26:12.300Z,47.72
2019-05-01T20:28:43.287Z,47.62
2019-05-01T20:31:14.289Z,47.89
2019-05-01T20:33:45.283Z,47.88
2019-05-01T20:36:16.267Z,47.63
2019-05-01T20:38:47.242Z,47.91
2019-05-01T20:41:18.239Z,47.78
2019-05-01T20:43:49.224Z,48.00
2019-05-01T20:46:21.494Z,47.85
2019-05-01T20:48:55.996Z,47.97
2019-05-01T20:51:26.339Z,47.94
2019-05-01T20:53:57.404Z,48.13
2019-05-01T20:56:32.815Z,47.97
2019-05-01T20:59:04.954Z,48.30
2019-05-01T21:01:36.080Z,48.27
2019-05-01T21:04:24.275Z,48.08
2019-05-01T21:07:15.604Z,48.07
2019-05-01T21:09:56.898Z,48.15
2019-05-01T21:12:21.510Z,48.14
2019-05-01T21:14:52.480Z,48.16
2019-05-01T21:17:23.544Z,48.20
2019-05-01T21:19:55.387Z,48.12
2019-05-01T21:22:26.363Z,48.16
2019-05-01T21:24:57.368Z,48.08
2019-05-01T21:27:28.349Z,48.21
2019-05-01T21:29:59.316Z,48.15
2019-05-01T21:32:30.326Z,48.23
2019-05-01T21:35:01.563Z,48.14
2019-05-01T21:37:32.540Z,48.18
2019-05-01T21:40:05.651Z,48.21
2019-05-01T21:42:37.333Z,48.19
2019-05-01T21:45:08.444Z,48.26
2019-05-01T21:47:39.456Z,48.17
2019-05-01T21:50:10.501Z,48.18
2019-05-01T21:52:43.618Z,48.16
2019-05-01T21:55:14.240Z,48.19
2019-05-01T21:57:49.227Z,48.17
2019-05-01T22:00:20.096Z,48.25
2019-05-01T22:02:51.113Z,48.22
2019-05-01T22:05:22.088Z,48.23
2019-05-01T22:07:53.532Z,48.18
2019-05-01T22:10:26.508Z,48.20
2019-05-01T22:12:57.183Z,48.22
2019-05-01T22:15:42.089Z,48.22
2019-05-01T22:18:22.052Z,48.21
2019-05-01T22:21:12.262Z,48.23
2019-05-01T22:24:01.207Z,48.39
2019-05-01T22:26:33.832Z,48.44
2019-05-01T22:29:06.449Z,48.44
2019-05-01T22:31:47.821Z,48.47
2019-05-01T22:34:20.459Z,48.53
2019-05-01T22:36:51.439Z,48.51
2019-05-01T22:39:24.050Z,48.58
2019-05-01T22:41:55.033Z,48.65
2019-05-01T22:44:26.028Z,48.59
2019-05-01T22:46:57.008Z,48.60
2019-05-01T22:49:27.983Z,48.59
2019-05-01T22:51:58.962Z,48.54
2019-05-01T22:54:29.956Z,48.52
2019-05-01T22:57:01.239Z,48.63
2019-05-01T22:59:32.221Z,48.58
2019-05-01T23:02:24.324Z,48.64
2019-05-01T23:04:55.261Z,48.69
2019-05-01T23:07:26.613Z,48.72
2019-05-01T23:09:59.377Z,48.76
2019-05-01T23:12:30.290Z,48.71
2019-05-01T23:15:01.339Z,48.81
2019-05-01T23:17:34.941Z,48.76
2019-05-01T23:20:08.999Z,48.76
2019-05-01T23:22:39.966Z,48.84
2019-05-01T23:25:11.027Z,48.85
2019-05-01T23:27:42.078Z,48.87
2019-05-01T23:30:16.232Z,49.00
2019-05-01T23:32:47.204Z,48.99
2019-05-01T23:35:18.185Z,49.05
2019-05-01T23:37:49.198Z,49.01
2019-05-01T23:40:20.842Z,49.03
2019-05-01T23:42:53.685Z,49.05
2019-05-01T23:45:24.501Z,49.10
2019-05-01T23:47:55.541Z,49.13
2019-05-01T23:50:26.521Z,49.11
2019-05-01T23:52:57.499Z,49.26
2019-05-01T23:55:28.474Z,49.23
2019-05-01T23:57:59.460Z,49.18
